createdAt,value
2022-10-02T00:00:19.843Z,100140.53
2022-10-02T00:02:54.232Z,100140.91
2022-10-02T00:05:40.449Z,100157.22
2022-10-02T00:08:11.131Z,100151.19
2022-10-02T00:10:44.834Z,100147.41
2022-10-02T00:13:16.602Z,100169.03
2022-10-02T00:15:43.405Z,100175.06
2022-10-02T00:18:16.656Z,100168.03
2022-10-02T00:20:59.101Z,100152.59
2022-10-02T00:23:45.459Z,100138.25
2022-10-02T00:26:20.935Z,100147.69
2022-10-02T00:29:13.840Z,100149.50
2022-10-02T00:31:48.140Z,100167.91
2022-10-02T00:34:30.714Z,100178.00
2022-10-02T00:37:28.721Z,100181.78
2022-10-02T00:40:20.158Z,100182.63
2022-10-02T00:42:52.554Z,100153.72
2022-10-02T00:45:25.471Z,100162.44
2022-10-02T00:48:22.419Z,100174.34
2022-10-02T00:51:18.485Z,100172.09
2022-10-02T00:54:08.126Z,100193.13
2022-10-02T00:57:07.778Z,100173.50
2022-10-02T00:59:52.887Z,100184.59
2022-10-02T01:02:31.777Z,100183.91
2022-10-02T01:05:01.248Z,100179.81
2022-10-02T01:07:28.148Z,100177.00
2022-10-02T01:09:55.326Z,100176.16
2022-10-02T01:12:22.646Z,100168.00
2022-10-02T01:14:49.665Z,100176.00
2022-10-02T01:17:34.842Z,100164.41
2022-10-02T01:20:04.852Z,100155.78
2022-10-02T01:22:42.037Z,100184.44
2022-10-02T01:25:08.819Z,100184.00
2022-10-02T01:27:39.123Z,100181.22
2022-10-02T01:30:15.989Z,100173.63
2022-10-02T01:33:03.218Z,100166.91
2022-10-02T01:35:31.931Z,100157.19
2022-10-02T01:38:00.255Z,100165.91
2022-10-02T01:40:32.684Z,100173.22
2022-10-02T01:43:09.164Z,100177.31
2022-10-02T01:45:58.324Z,100166.75
2022-10-02T01:48:47.045Z,100173.63
2022-10-02T01:51:34.545Z,100175.47
2022-10-02T01:54:08.794Z,100166.34
2022-10-02T01:56:48.850Z,100173.91
2022-10-02T01:59:28.555Z,100184.72
2022-10-02T02:02:23.613Z,100189.94
2022-10-02T02:04:56.861Z,100190.47
2022-10-02T02:07:29.405Z,100185.72
2022-10-02T02:10:10.063Z,100186.28
2022-10-02T02:12:43.532Z,100185.72
2022-10-02T02:15:16.413Z,100183.88
2022-10-02T02:18:07.476Z,100186.28
2022-10-02T02:20:38.157Z,100182.03
2022-10-02T02:23:08.197Z,100182.75
2022-10-02T02:25:38.350Z,100179.91
2022-10-02T02:28:09.346Z,100181.91
2022-10-02T02:30:38.640Z,100183.28
2022-10-02T02:33:09.674Z,100179.06
2022-10-02T02:35:43.026Z,100184.41
2022-10-02T02:38:13.871Z,100197.63
2022-10-02T02:40:43.422Z,100189.63
2022-10-02T02:43:18.010Z,100191.59
2022-10-02T02:45:50.960Z,100190.44
2022-10-02T02:48:27.947Z,100202.56
2022-10-02T02:51:02.542Z,100204.22
2022-10-02T02:53:36.574Z,100195.25
2022-10-02T02:56:05.990Z,100195.78
2022-10-02T02:58:47.322Z,100195.38
2022-10-02T03:01:14.456Z,100184.97
2022-10-02T03:03:41.269Z,100193.81
2022-10-02T03:06:18.346Z,100203.91
2022-10-02T03:08:46.025Z,100203.34
2022-10-02T03:11:30.876Z,100192.41
2022-10-02T03:14:01.305Z,100196.31
2022-10-02T03:16:40.825Z,100187.91
2022-10-02T03:19:45.574Z,100192.56
2022-10-02T03:22:45.937Z,100187.91
2022-10-02T03:25:24.317Z,100179.91
2022-10-02T03:27:57.122Z,100192.53
2022-10-02T03:30:24.481Z,100194.34
2022-10-02T03:32:53.550Z,100189.72
2022-10-02T03:35:21.439Z,100180.03
2022-10-02T03:37:51.379Z,100195.19
2022-10-02T03:40:22.112Z,100203.19
2022-10-02T03:42:48.965Z,100208.25
2022-10-02T03:45:32.718Z,100207.41
2022-10-02T03:48:02.527Z,100213.72
2022-10-02T03:50:32.888Z,100213.59
2022-10-02T03:53:10.218Z,100205.72
2022-10-02T03:55:39.322Z,100202.94
2022-10-02T03:58:13.378Z,100204.91
2022-10-02T04:00:47.068Z,100209.94
2022-10-02T04:03:27.297Z,100206.84
2022-10-02T04:06:03.586Z,100202.22
2022-10-02T04:08:35.072Z,100203.59
2022-10-02T04:11:16.892Z,100192.25
2022-10-02T04:13:53.086Z,100201.22
2022-10-02T04:16:40.445Z,100202.53
2022-10-02T04:19:10.994Z,100204.47
2022-10-02T04:21:51.783Z,100203.06
2022-10-02T04:24:25.920Z,100206.25
2022-10-02T04:27:04.176Z,100204.59
2022-10-02T04:29:38.034Z,100210.75
2022-10-02T04:32:13.525Z,100207.97
2022-10-02T04:34:40.930Z,100206.00
2022-10-02T04:37:16.499Z,100217.34
2022-10-02T04:40:08.632Z,100214.28
2022-10-02T04:43:01.822Z,100216.94
2022-10-02T04:45:37.462Z,100221.13
2022-10-02T04:48:26.021Z,100215.56
2022-10-02T04:51:34.879Z,100215.56
2022-10-02T04:54:26.206Z,100206.13
2022-10-02T04:57:20.683Z,100207.13
2022-10-02T05:00:10.177Z,100206.56
2022-10-02T05:02:50.478Z,100201.78
2022-10-02T05:05:36.105Z,100210.03
2022-10-02T05:08:11.240Z,100200.19
2022-10-02T05:11:00.862Z,100196.59
2022-10-02T05:13:43.656Z,100199.78
2022-10-02T05:16:28.212Z,100189.00
2022-10-02T05:19:13.562Z,100192.94
2022-10-02T05:22:21.436Z,100201.94
2022-10-02T05:25:06.274Z,100190.41
2022-10-02T05:27:48.006Z,100204.47
2022-10-02T05:30:18.959Z,100210.34
2022-10-02T05:33:03.115Z,100214.28
2022-10-02T05:35:35.918Z,100214.00
2022-10-02T05:38:20.205Z,100202.34
2022-10-02T05:41:03.858Z,100202.75
2022-10-02T05:43:39.593Z,100212.00
2022-10-02T05:46:11.474Z,100216.38
2022-10-02T05:48:42.884Z,100203.03
2022-10-02T05:51:15.375Z,100204.88
2022-10-02T05:53:57.117Z,100202.94
2022-10-02T05:56:32.239Z,100206.00
2022-10-02T05:59:30.593Z,100204.28
2022-10-02T06:01:58.279Z,100204.56
2022-10-02T06:04:36.073Z,100211.34
2022-10-02T06:07:08.628Z,100207.53
2022-10-02T06:09:44.678Z,100216.22
2022-10-02T06:12:14.798Z,100219.75
2022-10-02T06:14:41.408Z,100209.91
2022-10-02T06:17:19.829Z,100215.53
2022-10-02T06:20:35.264Z,100223.13
2022-10-02T06:23:16.421Z,100219.47
2022-10-02T06:25:45.239Z,100217.75
2022-10-02T06:28:19.875Z,100228.59
2022-10-02T06:30:51.211Z,100218.59
2022-10-02T06:33:26.162Z,100223.38
2022-10-02T06:36:13.771Z,100217.59
2022-10-02T06:39:00.568Z,100218.47
2022-10-02T06:41:41.579Z,100216.38
2022-10-02T06:44:14.822Z,100210.44
2022-10-02T06:46:51.478Z,100210.59
2022-10-02T06:49:50.389Z,100211.88
2022-10-02T06:52:58.194Z,100216.38
2022-10-02T06:55:49.001Z,100214.25
2022-10-02T06:58:56.979Z,100199.97
2022-10-02T07:01:46.749Z,100192.50
2022-10-02T07:04:24.590Z,100190.38
2022-10-02T07:07:12.494Z,100202.72
2022-10-02T07:10:17.621Z,100210.34
2022-10-02T07:13:07.939Z,100213.69
2022-10-02T07:16:09.228Z,100220.88
2022-10-02T07:18:47.694Z,100206.09
2022-10-02T07:21:39.317Z,100210.34
2022-10-02T07:24:15.319Z,100203.13
2022-10-02T07:26:48.085Z,100197.78
2022-10-02T07:29:27.361Z,100211.44
2022-10-02T07:32:19.497Z,100217.19
2022-10-02T07:35:00.991Z,100210.59
2022-10-02T07:37:30.150Z,100226.00
2022-10-02T07:40:17.229Z,100213.09
2022-10-02T07:42:47.110Z,100191.31
2022-10-02T07:45:36.450Z,100182.22
2022-10-02T07:48:26.921Z,100174.22
2022-10-02T07:51:04.157Z,100172.94
2022-10-02T07:53:47.008Z,100177.59
2022-10-02T07:56:19.941Z,100181.47
2022-10-02T07:58:51.951Z,100181.28
2022-10-02T08:01:23.861Z,100176.44
2022-10-02T08:04:02.640Z,100190.91
2022-10-02T08:06:29.752Z,100194.69
2022-10-02T08:09:11.127Z,100196.78
2022-10-02T08:11:49.200Z,100183.19
2022-10-02T08:14:38.162Z,100188.94
2022-10-02T08:17:23.142Z,100192.03
2022-10-02T08:19:50.978Z,100192.56
2022-10-02T08:22:26.176Z,100194.53
2022-10-02T08:24:56.801Z,100194.25
2022-10-02T08:27:41.503Z,100200.03
2022-10-02T08:30:12.537Z,100197.75
2022-10-02T08:32:39.173Z,100197.59
2022-10-02T08:35:11.974Z,100217.28
2022-10-02T08:37:57.741Z,100230.22
2022-10-02T08:40:55.691Z,100224.03
2022-10-02T08:43:34.425Z,100206.91
2022-10-02T08:46:23.458Z,100191.03
2022-10-02T08:48:56.220Z,100184.09
2022-10-02T08:52:00.144Z,100178.50
2022-10-02T08:54:59.601Z,100190.88
2022-10-02T08:57:49.668Z,100191.84
2022-10-02T09:00:23.182Z,100189.16
2022-10-02T09:03:15.629Z,100181.75
2022-10-02T09:06:03.962Z,100192.25
2022-10-02T09:08:39.562Z,100187.63
2022-10-02T09:11:45.113Z,100182.44
2022-10-02T09:14:16.543Z,100187.69
2022-10-02T09:17:13.962Z,100185.50
2022-10-02T09:20:04.182Z,100195.72
2022-10-02T09:23:06.186Z,100177.34
2022-10-02T09:25:51.382Z,100182.97
2022-10-02T09:28:39.732Z,100177.63
2022-10-02T09:31:56.826Z,100181.00
2022-10-02T09:34:47.385Z,100167.88
2022-10-02T09:37:18.132Z,100170.41
2022-10-02T09:40:18.863Z,100191.50
2022-10-02T09:43:09.996Z,100196.84
2022-10-02T09:45:48.918Z,100190.78
2022-10-02T09:48:23.989Z,100171.94
2022-10-02T09:51:06.783Z,100189.50
2022-10-02T09:53:59.726Z,100218.16
2022-10-02T09:56:41.381Z,100196.56
2022-10-02T09:59:30.305Z,100175.34
2022-10-02T10:02:25.554Z,100176.75
2022-10-02T10:05:08.747Z,100160.44
2022-10-02T10:07:44.503Z,100170.81
2022-10-02T10:10:42.147Z,100166.59
2022-10-02T10:13:35.502Z,100169.41
2022-10-02T10:16:30.425Z,100160.28
2022-10-02T10:19:34.382Z,100160.56
2022-10-02T10:22:34.660Z,100149.88
2022-10-02T10:25:38.614Z,100165.91
2022-10-02T10:28:23.836Z,100179.50
2022-10-02T10:31:15.114Z,100180.09
2022-10-02T10:34:05.732Z,100187.81
2022-10-02T10:37:01.637Z,100190.88
2022-10-02T10:39:43.301Z,100197.91
2022-10-02T10:42:49.894Z,100207.88
2022-10-02T10:45:38.772Z,100212.69
2022-10-02T10:48:28.322Z,100223.69
2022-10-02T10:51:16.479Z,100222.53
2022-10-02T10:54:04.754Z,100219.13
2022-10-02T10:56:54.709Z,100216.34
2022-10-02T10:59:45.826Z,100209.00
2022-10-02T11:02:35.877Z,100199.72
2022-10-02T11:05:41.570Z,100198.19
2022-10-02T11:08:23.399Z,100202.66
2022-10-02T11:11:16.984Z,100188.44
2022-10-02T11:13:53.726Z,100191.50
2022-10-02T11:16:23.427Z,100194.16
2022-10-02T11:19:08.611Z,100196.63
2022-10-02T11:21:57.299Z,100180.81
2022-10-02T11:24:39.128Z,100181.13
2022-10-02T11:27:38.045Z,100177.31
2022-10-02T11:30:10.760Z,100179.69
2022-10-02T11:32:56.162Z,100189.31
2022-10-02T11:35:25.905Z,100192.06
2022-10-02T11:38:26.770Z,100201.78
2022-10-02T11:41:08.956Z,100199.38
2022-10-02T11:43:43.198Z,100192.06
2022-10-02T11:46:54.099Z,100191.09
2022-10-02T11:49:38.938Z,100186.72
2022-10-02T11:52:36.679Z,100204.31
2022-10-02T11:55:24.965Z,100203.19
2022-10-02T11:58:19.016Z,100208.00
2022-10-02T12:01:05.812Z,100191.28
2022-10-02T12:03:39.840Z,100191.66
2022-10-02T12:06:31.570Z,100199.44
2022-10-02T12:09:02.815Z,100205.84
2022-10-02T12:11:36.422Z,100179.00
2022-10-02T12:14:29.464Z,100179.84
2022-10-02T12:17:24.150Z,100185.25
2022-10-02T12:20:36.686Z,100198.47
2022-10-02T12:23:50.857Z,100188.59
2022-10-02T12:26:39.241Z,100198.53
2022-10-02T12:29:12.823Z,100210.88
2022-10-02T12:31:51.412Z,100219.75
2022-10-02T12:34:49.179Z,100219.06
2022-10-02T12:37:29.603Z,100220.31
2022-10-02T12:40:07.214Z,100209.91
2022-10-02T12:43:12.932Z,100227.22
2022-10-02T12:46:05.466Z,100201.34
2022-10-02T12:48:54.016Z,100208.78
2022-10-02T12:51:50.149Z,100207.53
2022-10-02T12:54:41.315Z,100193.41
2022-10-02T12:57:55.908Z,100191.75
2022-10-02T13:00:40.828Z,100192.97
2022-10-02T13:03:39.623Z,100190.09
2022-10-02T13:06:31.770Z,100181.47
2022-10-02T13:09:28.086Z,100175.72
2022-10-02T13:12:20.914Z,100182.91
2022-10-02T13:15:22.031Z,100205.25
2022-10-02T13:17:58.695Z,100201.28
2022-10-02T13:20:31.301Z,100192.13
2022-10-02T13:23:14.301Z,100186.09
2022-10-02T13:25:57.782Z,100203.13
2022-10-02T13:28:53.766Z,100188.38
2022-10-02T13:31:36.601Z,100194.28
2022-10-02T13:34:09.587Z,100199.31
2022-10-02T13:36:55.668Z,100207.16
2022-10-02T13:39:37.101Z,100206.50
2022-10-02T13:42:45.030Z,100194.41
2022-10-02T13:45:29.653Z,100194.28
2022-10-02T13:48:09.450Z,100194.13
2022-10-02T13:50:46.425Z,100192.28
2022-10-02T13:53:33.904Z,100200.47
2022-10-02T13:56:15.550Z,100198.75
2022-10-02T13:58:52.159Z,100196.78
2022-10-02T14:01:32.497Z,100209.84
2022-10-02T14:04:15.120Z,100213.50
2022-10-02T14:07:05.327Z,100209.69
2022-10-02T14:09:37.951Z,100207.16
2022-10-02T14:12:20.441Z,100213.13
2022-10-02T14:15:35.257Z,100207.78
2022-10-02T14:18:26.434Z,100213.13
2022-10-02T14:21:20.487Z,100220.13
2022-10-02T14:24:15.494Z,100235.19
2022-10-02T14:27:05.650Z,100224.19
2022-10-02T14:29:45.622Z,100215.34
2022-10-02T14:32:15.109Z,100204.22
2022-10-02T14:35:02.621Z,100202.81
2022-10-02T14:37:52.864Z,100194.81
2022-10-02T14:40:20.316Z,100203.91
2022-10-02T14:42:46.958Z,100197.88
2022-10-02T14:45:26.842Z,100198.69
2022-10-02T14:48:15.289Z,100209.31
2022-10-02T14:51:19.254Z,100201.44
2022-10-02T14:54:17.320Z,100203.28
2022-10-02T14:56:59.558Z,100202.00
2022-10-02T14:59:30.634Z,100203.53
2022-10-02T15:02:07.227Z,100209.69
2022-10-02T15:05:21.188Z,100204.59
2022-10-02T15:07:47.672Z,100212.34
2022-10-02T15:10:28.433Z,100203.56
2022-10-02T15:13:02.434Z,100209.00
2022-10-02T15:15:36.441Z,100202.13
2022-10-02T15:18:23.355Z,100200.00
2022-10-02T15:21:01.950Z,100199.75
2022-10-02T15:23:31.609Z,100206.31
2022-10-02T15:26:02.507Z,100208.88
2022-10-02T15:28:49.246Z,100206.25
2022-10-02T15:31:21.248Z,100211.66
2022-10-02T15:34:07.559Z,100211.97
2022-10-02T15:36:48.199Z,100214.97
2022-10-02T15:39:41.191Z,100215.09
2022-10-02T15:42:09.612Z,100224.19
2022-10-02T15:45:06.149Z,100235.63
2022-10-02T15:47:38.085Z,100234.34
2022-10-02T15:50:04.647Z,100233.47
2022-10-02T15:52:56.088Z,100237.59
2022-10-02T15:55:40.610Z,100236.75
2022-10-02T15:58:28.985Z,100234.41
2022-10-02T16:01:04.437Z,100249.81
2022-10-02T16:03:40.915Z,100247.44
2022-10-02T16:06:27.320Z,100252.78
2022-10-02T16:09:03.619Z,100253.63
2022-10-02T16:11:45.532Z,100262.63
2022-10-02T16:14:27.486Z,100269.41
2022-10-02T16:17:09.918Z,100267.59
2022-10-02T16:19:39.205Z,100268.13
2022-10-02T16:22:20.991Z,100259.00
2022-10-02T16:24:59.699Z,100270.97
2022-10-02T16:27:32.496Z,100271.09
2022-10-02T16:30:12.353Z,100278.84
2022-10-02T16:32:43.209Z,100295.97
2022-10-02T16:35:44.912Z,100294.84
2022-10-02T16:38:49.460Z,100288.16
2022-10-02T16:41:28.296Z,100294.47
2022-10-02T16:44:26.186Z,100300.66
2022-10-02T16:47:08.641Z,100301.34
2022-10-02T16:50:00.230Z,100304.31
2022-10-02T16:52:33.146Z,100306.69
2022-10-02T16:55:35.672Z,100300.94
2022-10-02T16:58:25.230Z,100304.59
2022-10-02T17:01:05.141Z,100306.84
2022-10-02T17:03:45.624Z,100310.66
2022-10-02T17:06:27.018Z,100303.47
2022-10-02T17:08:58.624Z,100308.06
2022-10-02T17:11:52.366Z,100328.50
2022-10-02T17:14:25.207Z,100330.72
2022-10-02T17:16:57.811Z,100331.56
2022-10-02T17:19:45.798Z,100339.19
2022-10-02T17:23:03.074Z,100339.19
2022-10-02T17:25:43.544Z,100337.59
2022-10-02T17:28:28.572Z,100348.03
2022-10-02T17:31:01.490Z,100350.28
2022-10-02T17:33:32.269Z,100344.75
2022-10-02T17:36:13.758Z,100341.16
2022-10-02T17:39:04.028Z,100358.84
2022-10-02T17:41:47.379Z,100370.53
2022-10-02T17:44:26.179Z,100350.41
2022-10-02T17:47:25.535Z,100347.31
2022-10-02T17:50:05.385Z,100364.31
2022-10-02T17:52:57.058Z,100378.94
2022-10-02T17:56:02.828Z,100372.63
2022-10-02T17:58:35.562Z,100371.22
2022-10-02T18:01:52.755Z,100377.00
2022-10-02T18:04:39.562Z,100385.16
2022-10-02T18:07:31.337Z,100381.63
2022-10-02T18:10:42.543Z,100387.56
2022-10-02T18:13:21.703Z,100395.13
2022-10-02T18:16:18.574Z,100391.63
2022-10-02T18:19:19.857Z,100396.41
2022-10-02T18:22:16.545Z,100403.84
2022-10-02T18:25:01.691Z,100412.84
2022-10-02T18:27:42.142Z,100408.22
2022-10-02T18:30:19.199Z,100413.81
2022-10-02T18:33:07.623Z,100418.72
2022-10-02T18:36:01.240Z,100427.72
2022-10-02T18:39:01.253Z,100430.28
2022-10-02T18:41:52.393Z,100440.50
2022-10-02T18:44:35.003Z,100428.84
2022-10-02T18:47:34.209Z,100437.16
2022-10-02T18:50:25.334Z,100439.94
2022-10-02T18:53:10.339Z,100442.31
2022-10-02T18:55:48.693Z,100455.84
2022-10-02T18:58:32.766Z,100451.47
2022-10-02T19:00:59.559Z,100448.25
2022-10-02T19:04:03.732Z,100455.69
2022-10-02T19:06:34.171Z,100459.63
2022-10-02T19:09:06.725Z,100457.78
2022-10-02T19:11:37.161Z,100469.19
2022-10-02T19:14:33.106Z,100473.97
2022-10-02T19:17:05.304Z,100475.63
2022-10-02T19:19:33.452Z,100474.66
2022-10-02T19:22:02.086Z,100491.50
2022-10-02T19:24:31.729Z,100487.44
2022-10-02T19:27:01.198Z,100486.31
2022-10-02T19:29:37.036Z,100487.56
2022-10-02T19:32:13.090Z,100489.53
2022-10-02T19:34:42.021Z,100496.56
2022-10-02T19:37:13.536Z,100496.69
2022-10-02T19:39:44.316Z,100500.47
2022-10-02T19:42:16.899Z,100510.59
2022-10-02T19:44:49.878Z,100508.34
2022-10-02T19:47:22.773Z,100508.09
2022-10-02T19:49:50.686Z,100513.53
2022-10-02T19:52:51.231Z,100514.22
2022-10-02T19:55:24.866Z,100515.47
2022-10-02T19:57:57.151Z,100525.16
2022-10-02T20:00:23.834Z,100525.31
2022-10-02T20:02:58.998Z,100533.44
2022-10-02T20:05:31.646Z,100540.91
2022-10-02T20:08:06.644Z,100543.59
2022-10-02T20:10:35.160Z,100542.47
2022-10-02T20:13:39.162Z,100550.97
2022-10-02T20:16:31.612Z,100552.44
2022-10-02T20:18:58.275Z,100561.16
2022-10-02T20:21:37.840Z,100561.66
2022-10-02T20:24:13.309Z,100565.19
2022-10-02T20:26:41.394Z,100569.00
2022-10-02T20:29:16.018Z,100573.63
2022-10-02T20:31:53.780Z,100572.63
2022-10-02T20:34:25.066Z,100587.91
2022-10-02T20:37:13.357Z,100590.06
2022-10-02T20:40:01.446Z,100591.13
2022-10-02T20:42:39.069Z,100598.94
2022-10-02T20:45:08.928Z,100593.31
2022-10-02T20:47:47.689Z,100594.44
2022-10-02T20:50:33.084Z,100601.66
2022-10-02T20:53:21.172Z,100601.50
2022-10-02T20:55:58.931Z,100610.22
2022-10-02T20:58:56.315Z,100615.34
2022-10-02T21:01:40.657Z,100620.38
2022-10-02T21:04:32.656Z,100624.97
2022-10-02T21:07:36.203Z,100626.66
2022-10-02T21:10:02.817Z,100625.16
2022-10-02T21:13:06.703Z,100625.25
2022-10-02T21:15:52.569Z,100626.09
2022-10-02T21:18:50.314Z,100635.53
2022-10-02T21:21:35.995Z,100637.09
2022-10-02T21:24:24.124Z,100639.41
2022-10-02T21:27:02.891Z,100643.56
2022-10-02T21:29:56.466Z,100640.59
2022-10-02T21:32:24.690Z,100650.59
2022-10-02T21:35:14.345Z,100662.28
2022-10-02T21:38:06.088Z,100655.59
2022-10-02T21:41:12.574Z,100656.75
2022-10-02T21:43:39.414Z,100658.25
2022-10-02T21:46:44.330Z,100661.31
2022-10-02T21:49:41.902Z,100664.00
2022-10-02T21:52:23.795Z,100658.50
2022-10-02T21:55:21.262Z,100659.88
2022-10-02T21:57:57.023Z,100667.63
2022-10-02T22:00:28.012Z,100669.50
2022-10-02T22:03:10.309Z,100676.41
2022-10-02T22:06:05.396Z,100677.44
2022-10-02T22:09:04.652Z,100680.66
2022-10-02T22:12:09.460Z,100675.31
2022-10-02T22:14:39.785Z,100683.81
2022-10-02T22:17:16.014Z,100677.16
2022-10-02T22:19:45.465Z,100691.41
2022-10-02T22:22:15.183Z,100685.38
2022-10-02T22:24:47.822Z,100684.28
2022-10-02T22:27:42.986Z,100679.72
2022-10-02T22:30:27.746Z,100688.94
2022-10-02T22:33:22.497Z,100692.94
2022-10-02T22:36:10.613Z,100695.72
2022-10-02T22:38:44.249Z,100696.16
2022-10-02T22:41:37.675Z,100705.41
2022-10-02T22:44:16.138Z,100710.22
2022-10-02T22:46:53.742Z,100709.38
2022-10-02T22:50:13.188Z,100706.66
2022-10-02T22:52:53.092Z,100719.19
2022-10-02T22:55:24.274Z,100714.84
2022-10-02T22:58:06.980Z,100720.28
2022-10-02T23:00:39.529Z,100719.78
2022-10-02T23:03:15.157Z,100723.28
2022-10-02T23:06:07.940Z,100723.16
2022-10-02T23:08:42.849Z,100727.78
2022-10-02T23:11:15.527Z,100722.31
2022-10-02T23:13:58.953Z,100717.78
2022-10-02T23:16:35.624Z,100724.00
2022-10-02T23:19:15.839Z,100720.72
2022-10-02T23:21:59.007Z,100726.16
2022-10-02T23:24:30.661Z,100717.78
2022-10-02T23:27:09.310Z,100715.50
2022-10-02T23:29:59.358Z,100713.59
2022-10-02T23:32:46.745Z,100718.44
2022-10-02T23:35:26.889Z,100728.28
2022-10-02T23:38:15.091Z,100737.09
2022-10-02T23:41:35.699Z,100739.03
2022-10-02T23:44:08.561Z,100741.16
2022-10-02T23:47:08.078Z,100745.72
2022-10-02T23:49:38.924Z,100747.22
2022-10-02T23:52:43.009Z,100738.19
2022-10-02T23:55:19.730Z,100753.00
2022-10-02T23:58:02.388Z,100750.16
